sensor_id;sensor_type;location;lat;lon;timestamp;P1;durP1;ratioP1;P2;durP2;ratioP2
59338;SDS011;45117;50.960;5.500;2022-07-23T00:00:04;13.55;;;7.78;;
59338;SDS011;45117;50.960;5.500;2022-07-23T00:02:32;14.82;;;8.50;;
59338;SDS011;45117;50.960;5.500;2022-07-23T00:05:00;11.63;;;7.38;;
59338;SDS011;45117;50.960;5.500;2022-07-23T00:07:26;14.50;;;8.02;;
59338;SDS011;45117;50.960;5.500;2022-07-23T00:09:53;13.93;;;8.02;;
59338;SDS011;45117;50.960;5.500;2022-07-23T00:12:20;13.77;;;7.75;;
59338;SDS011;45117;50.960;5.500;2022-07-23T00:14:46;14.32;;;8.10;;
59338;SDS011;45117;50.960;5.500;2022-07-23T00:17:13;11.45;;;7.00;;
59338;SDS011;45117;50.960;5.500;2022-07-23T00:19:39;11.18;;;7.65;;
59338;SDS011;45117;50.960;5.500;2022-07-23T00:22:07;11.43;;;7.95;;
59338;SDS011;45117;50.960;5.500;2022-07-23T00:24:34;13.60;;;8.18;;
59338;SDS011;45117;50.960;5.500;2022-07-23T00:27:01;13.02;;;7.65;;
59338;SDS011;45117;50.960;5.500;2022-07-23T00:29:27;14.32;;;7.32;;
59338;SDS011;45117;50.960;5.500;2022-07-23T00:31:54;12.25;;;7.30;;
59338;SDS011;45117;50.960;5.500;2022-07-23T00:34:20;15.50;;;8.32;;
59338;SDS011;45117;50.960;5.500;2022-07-23T00:36:47;12.93;;;7.85;;
59338;SDS011;45117;50.960;5.500;2022-07-23T00:39:15;16.08;;;8.40;;
59338;SDS011;45117;50.960;5.500;2022-07-23T00:41:42;13.35;;;8.70;;
59338;SDS011;45117;50.960;5.500;2022-07-23T00:44:15;16.30;;;8.38;;
59338;SDS011;45117;50.960;5.500;2022-07-23T00:46:45;12.73;;;8.05;;
59338;SDS011;45117;50.960;5.500;2022-07-23T00:49:12;15.95;;;7.75;;
59338;SDS011;45117;50.960;5.500;2022-07-23T00:51:39;13.93;;;8.77;;
59338;SDS011;45117;50.960;5.500;2022-07-23T00:54:06;13.60;;;8.90;;
59338;SDS011;45117;50.960;5.500;2022-07-23T00:56:34;14.13;;;8.32;;
59338;SDS011;45117;50.960;5.500;2022-07-23T00:59:00;12.70;;;8.38;;
59338;SDS011;45117;50.960;5.500;2022-07-23T01:01:28;13.88;;;8.10;;
59338;SDS011;45117;50.960;5.500;2022-07-23T01:03:54;14.52;;;9.07;;
59338;SDS011;45117;50.960;5.500;2022-07-23T01:06:21;12.10;;;7.97;;
59338;SDS011;45117;50.960;5.500;2022-07-23T01:08:47;15.45;;;9.07;;
59338;SDS011;45117;50.960;5.500;2022-07-23T01:11:14;15.13;;;9.10;;
59338;SDS011;45117;50.960;5.500;2022-07-23T01:13:42;15.23;;;8.85;;
59338;SDS011;45117;50.960;5.500;2022-07-23T01:16:09;14.45;;;8.98;;
59338;SDS011;45117;50.960;5.500;2022-07-23T01:18:35;13.07;;;8.80;;
59338;SDS011;45117;50.960;5.500;2022-07-23T01:21:02;15.10;;;9.00;;
59338;SDS011;45117;50.960;5.500;2022-07-23T01:23:30;14.93;;;9.52;;
59338;SDS011;45117;50.960;5.500;2022-07-23T01:25:57;14.57;;;7.70;;
59338;SDS011;45117;50.960;5.500;2022-07-23T01:28:23;12.27;;;8.50;;
59338;SDS011;45117;50.960;5.500;2022-07-23T01:30:50;14.52;;;8.40;;
59338;SDS011;45117;50.960;5.500;2022-07-23T01:33:16;16.70;;;8.90;;
59338;SDS011;45117;50.960;5.500;2022-07-23T01:35:43;12.27;;;8.02;;
59338;SDS011;45117;50.960;5.500;2022-07-23T01:38:10;15.25;;;8.45;;
59338;SDS011;45117;50.960;5.500;2022-07-23T01:40:37;11.25;;;7.80;;
59338;SDS011;45117;50.960;5.500;2022-07-23T01:43:04;12.82;;;8.77;;
59338;SDS011;45117;50.960;5.500;2022-07-23T01:45:31;12.80;;;7.85;;
59338;SDS011;45117;50.960;5.500;2022-07-23T01:47:57;15.98;;;9.32;;
59338;SDS011;45117;50.960;5.500;2022-07-23T01:50:24;14.57;;;8.98;;
59338;SDS011;45117;50.960;5.500;2022-07-23T01:52:50;14.23;;;9.23;;
59338;SDS011;45117;50.960;5.500;2022-07-23T01:55:17;14.55;;;9.15;;
59338;SDS011;45117;50.960;5.500;2022-07-23T01:57:45;16.58;;;8.80;;
59338;SDS011;45117;50.960;5.500;2022-07-23T02:00:12;14.43;;;7.85;;
59338;SDS011;45117;50.960;5.500;2022-07-23T02:02:38;11.27;;;7.40;;
59338;SDS011;45117;50.960;5.500;2022-07-23T02:05:05;13.35;;;8.88;;
59338;SDS011;45117;50.960;5.500;2022-07-23T02:07:32;13.85;;;9.00;;
59338;SDS011;45117;50.960;5.500;2022-07-23T02:09:59;17.17;;;9.07;;
59338;SDS011;45117;50.960;5.500;2022-07-23T02:12:26;14.57;;;8.48;;
59338;SDS011;45117;50.960;5.500;2022-07-23T02:14:54;13.30;;;8.60;;
59338;SDS011;45117;50.960;5.500;2022-07-23T02:17:20;14.82;;;8.05;;
59338;SDS011;45117;50.960;5.500;2022-07-23T02:19:47;15.88;;;9.10;;
59338;SDS011;45117;50.960;5.500;2022-07-23T02:22:13;16.70;;;9.43;;
59338;SDS011;45117;50.960;5.500;2022-07-23T02:24:40;14.88;;;9.32;;
59338;SDS011;45117;50.960;5.500;2022-07-23T02:27:06;17.23;;;9.65;;
59338;SDS011;45117;50.960;5.500;2022-07-23T02:29:33;18.77;;;9.00;;
59338;SDS011;45117;50.960;5.500;2022-07-23T02:32:01;14.00;;;8.18;;
59338;SDS011;45117;50.960;5.500;2022-07-23T02:34:27;20.83;;;10.15;;
59338;SDS011;45117;50.960;5.500;2022-07-23T02:36:53;19.83;;;9.15;;
59338;SDS011;45117;50.960;5.500;2022-07-23T02:39:20;18.50;;;9.18;;
59338;SDS011;45117;50.960;5.500;2022-07-23T02:41:47;15.43;;;8.98;;
59338;SDS011;45117;50.960;5.500;2022-07-23T02:44:16;13.95;;;9.32;;
59338;SDS011;45117;50.960;5.500;2022-07-23T02:46:43;14.90;;;9.95;;
59338;SDS011;45117;50.960;5.500;2022-07-23T02:49:10;12.77;;;8.10;;
59338;SDS011;45117;50.960;5.500;2022-07-23T02:51:37;16.63;;;9.93;;
59338;SDS011;45117;50.960;5.500;2022-07-23T02:54:04;16.60;;;9.30;;
59338;SDS011;45117;50.960;5.500;2022-07-23T02:56:30;13.57;;;7.75;;
59338;SDS011;45117;50.960;5.500;2022-07-23T02:58:57;16.35;;;9.32;;
59338;SDS011;45117;50.960;5.500;2022-07-23T03:01:23;18.27;;;9.63;;
59338;SDS011;45117;50.960;5.500;2022-07-23T03:03:50;16.25;;;9.50;;
59338;SDS011;45117;50.960;5.500;2022-07-23T03:06:18;17.17;;;9.88;;
59338;SDS011;45117;50.960;5.500;2022-07-23T03:08:45;18.55;;;9.45;;
59338;SDS011;45117;50.960;5.500;2022-07-23T03:11:11;16.27;;;9.68;;
59338;SDS011;45117;50.960;5.500;2022-07-23T03:13:38;20.02;;;9.95;;
59338;SDS011;45117;50.960;5.500;2022-07-23T03:16:05;17.08;;;10.02;;
59338;SDS011;45117;50.960;5.500;2022-07-23T03:18:32;20.88;;;10.65;;
59338;SDS011;45117;50.960;5.500;2022-07-23T03:20:59;17.00;;;9.57;;
59338;SDS011;45117;50.960;5.500;2022-07-23T03:23:27;16.38;;;10.45;;
59338;SDS011;45117;50.960;5.500;2022-07-23T03:25:54;17.42;;;9.73;;
59338;SDS011;45117;50.960;5.500;2022-07-23T03:28:20;14.80;;;9.68;;
59338;SDS011;45117;50.960;5.500;2022-07-23T03:30:47;14.93;;;9.55;;
59338;SDS011;45117;50.960;5.500;2022-07-23T03:33:14;19.40;;;9.73;;
59338;SDS011;45117;50.960;5.500;2022-07-23T03:35:41;16.77;;;9.25;;
59338;SDS011;45117;50.960;5.500;2022-07-23T03:38:08;15.80;;;10.02;;
59338;SDS011;45117;50.960;5.500;2022-07-23T03:40:36;18.15;;;10.13;;
59338;SDS011;45117;50.960;5.500;2022-07-23T03:43:02;15.18;;;9.77;;
59338;SDS011;45117;50.960;5.500;2022-07-23T03:45:29;19.50;;;10.55;;
59338;SDS011;45117;50.960;5.500;2022-07-23T03:47:55;18.75;;;10.70;;
59338;SDS011;45117;50.960;5.500;2022-07-23T03:50:22;18.90;;;10.32;;
59338;SDS011;45117;50.960;5.500;2022-07-23T03:52:49;21.45;;;11.40;;
59338;SDS011;45117;50.960;5.500;2022-07-23T03:55:15;19.98;;;10.55;;
59338;SDS011;45117;50.960;5.500;2022-07-23T03:57:43;18.92;;;10.77;;
59338;SDS011;45117;50.960;5.500;2022-07-23T04:00:10;17.75;;;10.63;;
59338;SDS011;45117;50.960;5.500;2022-07-23T04:02:38;15.63;;;9.60;;
59338;SDS011;45117;50.960;5.500;2022-07-23T04:05:05;15.00;;;9.90;;
59338;SDS011;45117;50.960;5.500;2022-07-23T04:07:33;17.85;;;10.52;;
59338;SDS011;45117;50.960;5.500;2022-07-23T04:09:59;22.08;;;11.25;;
59338;SDS011;45117;50.960;5.500;2022-07-23T04:12:26;17.38;;;10.38;;
59338;SDS011;45117;50.960;5.500;2022-07-23T04:14:54;16.60;;;9.35;;
59338;SDS011;45117;50.960;5.500;2022-07-23T04:17:20;15.10;;;10.27;;
59338;SDS011;45117;50.960;5.500;2022-07-23T04:19:47;15.48;;;9.55;;
59338;SDS011;45117;50.960;5.500;2022-07-23T04:22:13;19.45;;;11.60;;
59338;SDS011;45117;50.960;5.500;2022-07-23T04:24:40;17.00;;;9.93;;
59338;SDS011;45117;50.960;5.500;2022-07-23T04:27:06;16.67;;;9.85;;
59338;SDS011;45117;50.960;5.500;2022-07-23T04:29:33;19.73;;;11.23;;
59338;SDS011;45117;50.960;5.500;2022-07-23T04:32:01;20.73;;;11.77;;
59338;SDS011;45117;50.960;5.500;2022-07-23T04:34:28;21.17;;;11.05;;
59338;SDS011;45117;50.960;5.500;2022-07-23T04:36:54;15.82;;;10.52;;
59338;SDS011;45117;50.960;5.500;2022-07-23T04:39:21;17.70;;;10.63;;
59338;SDS011;45117;50.960;5.500;2022-07-23T04:41:47;19.13;;;10.32;;
59338;SDS011;45117;50.960;5.500;2022-07-23T04:44:14;16.02;;;10.38;;
59338;SDS011;45117;50.960;5.500;2022-07-23T04:46:40;15.90;;;10.40;;
59338;SDS011;45117;50.960;5.500;2022-07-23T04:49:09;16.73;;;10.55;;
59338;SDS011;45117;50.960;5.500;2022-07-23T04:51:35;13.02;;;9.18;;
59338;SDS011;45117;50.960;5.500;2022-07-23T04:54:02;16.90;;;10.88;;
59338;SDS011;45117;50.960;5.500;2022-07-23T04:56:28;16.20;;;10.35;;
59338;SDS011;45117;50.960;5.500;2022-07-23T04:58:55;15.52;;;9.95;;
59338;SDS011;45117;50.960;5.500;2022-07-23T05:01:21;15.50;;;10.50;;
59338;SDS011;45117;50.960;5.500;2022-07-23T05:03:48;17.60;;;10.15;;
59338;SDS011;45117;50.960;5.500;2022-07-23T05:06:16;18.48;;;10.65;;
59338;SDS011;45117;50.960;5.500;2022-07-23T05:08:43;15.90;;;8.90;;
59338;SDS011;45117;50.960;5.500;2022-07-23T05:11:09;14.63;;;9.55;;
59338;SDS011;45117;50.960;5.500;2022-07-23T05:13:36;14.00;;;9.07;;
59338;SDS011;45117;50.960;5.500;2022-07-23T05:16:02;12.18;;;8.15;;
59338;SDS011;45117;50.960;5.500;2022-07-23T05:18:29;11.95;;;8.43;;
59338;SDS011;45117;50.960;5.500;2022-07-23T05:20:56;12.73;;;8.15;;
59338;SDS011;45117;50.960;5.500;2022-07-23T05:23:24;10.85;;;7.20;;
59338;SDS011;45117;50.960;5.500;2022-07-23T05:25:50;13.88;;;8.00;;
59338;SDS011;45117;50.960;5.500;2022-07-23T05:28:17;9.13;;;6.72;;
59338;SDS011;45117;50.960;5.500;2022-07-23T05:30:43;12.20;;;6.35;;
59338;SDS011;45117;50.960;5.500;2022-07-23T05:33:10;9.85;;;6.55;;
59338;SDS011;45117;50.960;5.500;2022-07-23T05:35:37;9.13;;;6.10;;
59338;SDS011;45117;50.960;5.500;2022-07-23T05:38:04;9.57;;;6.38;;
59338;SDS011;45117;50.960;5.500;2022-07-23T05:40:32;8.07;;;5.88;;
59338;SDS011;45117;50.960;5.500;2022-07-23T05:42:58;10.38;;;6.13;;
59338;SDS011;45117;50.960;5.500;2022-07-23T05:45:25;6.70;;;5.53;;
59338;SDS011;45117;50.960;5.500;2022-07-23T05:47:51;9.60;;;6.20;;
59338;SDS011;45117;50.960;5.500;2022-07-23T05:50:18;10.88;;;6.60;;
59338;SDS011;45117;50.960;5.500;2022-07-23T05:52:45;7.28;;;5.53;;
59338;SDS011;45117;50.960;5.500;2022-07-23T05:55:12;10.90;;;6.05;;
59338;SDS011;45117;50.960;5.500;2022-07-23T05:57:40;6.80;;;5.07;;
59338;SDS011;45117;50.960;5.500;2022-07-23T06:00:08;10.68;;;6.38;;
59338;SDS011;45117;50.960;5.500;2022-07-23T06:02:35;7.63;;;5.97;;
59338;SDS011;45117;50.960;5.500;2022-07-23T06:05:03;8.50;;;5.95;;
59338;SDS011;45117;50.960;5.500;2022-07-23T06:07:30;9.32;;;5.43;;
59338;SDS011;45117;50.960;5.500;2022-07-23T06:09:56;10.57;;;6.05;;
59338;SDS011;45117;50.960;5.500;2022-07-23T06:12:23;8.68;;;5.80;;
59338;SDS011;45117;50.960;5.500;2022-07-23T06:14:52;6.80;;;5.32;;
59338;SDS011;45117;50.960;5.500;2022-07-23T06:17:18;8.75;;;6.30;;
59338;SDS011;45117;50.960;5.500;2022-07-23T06:19:45;8.38;;;5.90;;
59338;SDS011;45117;50.960;5.500;2022-07-23T06:22:11;7.75;;;6.25;;
59338;SDS011;45117;50.960;5.500;2022-07-23T06:24:38;8.13;;;6.45;;
59338;SDS011;45117;50.960;5.500;2022-07-23T06:27:04;8.63;;;5.82;;
59338;SDS011;45117;50.960;5.500;2022-07-23T06:29:31;8.02;;;5.00;;
59338;SDS011;45117;50.960;5.500;2022-07-23T06:31:59;10.10;;;6.50;;
59338;SDS011;45117;50.960;5.500;2022-07-23T06:34:25;7.68;;;5.65;;
59338;SDS011;45117;50.960;5.500;2022-07-23T06:36:52;11.20;;;5.72;;
59338;SDS011;45117;50.960;5.500;2022-07-23T06:39:18;10.27;;;6.47;;
59338;SDS011;45117;50.960;5.500;2022-07-23T06:41:45;8.55;;;5.00;;
59338;SDS011;45117;50.960;5.500;2022-07-23T06:44:12;12.27;;;7.03;;
59338;SDS011;45117;50.960;5.500;2022-07-23T06:46:38;9.50;;;6.50;;
59338;SDS011;45117;50.960;5.500;2022-07-23T06:49:06;13.10;;;6.40;;
59338;SDS011;45117;50.960;5.500;2022-07-23T06:51:33;10.10;;;6.60;;
59338;SDS011;45117;50.960;5.500;2022-07-23T06:53:59;10.80;;;6.65;;
59338;SDS011;45117;50.960;5.500;2022-07-23T06:56:26;9.48;;;6.72;;
59338;SDS011;45117;50.960;5.500;2022-07-23T06:58:52;12.00;;;7.82;;
59338;SDS011;45117;50.960;5.500;2022-07-23T07:01:19;9.20;;;6.72;;
59338;SDS011;45117;50.960;5.500;2022-07-23T07:03:46;7.40;;;5.75;;
59338;SDS011;45117;50.960;5.500;2022-07-23T07:06:14;9.63;;;6.88;;
59338;SDS011;45117;50.960;5.500;2022-07-23T07:08:41;10.63;;;7.15;;
59338;SDS011;45117;50.960;5.500;2022-07-23T07:11:09;12.68;;;7.50;;
59338;SDS011;45117;50.960;5.500;2022-07-23T07:13:35;10.77;;;7.60;;
59338;SDS011;45117;50.960;5.500;2022-07-23T07:16:02;13.27;;;7.22;;
59338;SDS011;45117;50.960;5.500;2022-07-23T07:18:29;9.98;;;6.22;;
59338;SDS011;45117;50.960;5.500;2022-07-23T07:20:56;11.45;;;7.28;;
59338;SDS011;45117;50.960;5.500;2022-07-23T07:23:24;12.07;;;7.32;;
59338;SDS011;45117;50.960;5.500;2022-07-23T07:25:51;11.20;;;7.35;;
59338;SDS011;45117;50.960;5.500;2022-07-23T07:28:17;9.80;;;6.82;;
59338;SDS011;45117;50.960;5.500;2022-07-23T07:30:44;10.20;;;6.93;;
59338;SDS011;45117;50.960;5.500;2022-07-23T07:33:10;9.52;;;6.60;;
59338;SDS011;45117;50.960;5.500;2022-07-23T07:35:37;11.25;;;6.72;;
59338;SDS011;45117;50.960;5.500;2022-07-23T07:38:03;11.70;;;6.80;;
59338;SDS011;45117;50.960;5.500;2022-07-23T07:40:31;9.75;;;6.95;;
59338;SDS011;45117;50.960;5.500;2022-07-23T07:42:58;9.63;;;5.63;;
59338;SDS011;45117;50.960;5.500;2022-07-23T07:45:24;10.50;;;6.47;;
59338;SDS011;45117;50.960;5.500;2022-07-23T07:47:52;7.45;;;5.70;;
59338;SDS011;45117;50.960;5.500;2022-07-23T07:50:18;9.15;;;6.82;;
59338;SDS011;45117;50.960;5.500;2022-07-23T07:52:45;10.10;;;6.60;;
59338;SDS011;45117;50.960;5.500;2022-07-23T07:55:12;11.32;;;6.40;;
59338;SDS011;45117;50.960;5.500;2022-07-23T07:57:40;8.82;;;6.13;;
59338;SDS011;45117;50.960;5.500;2022-07-23T08:00:07;9.63;;;6.50;;
59338;SDS011;45117;50.960;5.500;2022-07-23T08:02:42;11.00;;;6.70;;
59338;SDS011;45117;50.960;5.500;2022-07-23T08:05:09;9.25;;;6.35;;
59338;SDS011;45117;50.960;5.500;2022-07-23T08:07:36;8.30;;;5.57;;
59338;SDS011;45117;50.960;5.500;2022-07-23T08:10:04;8.07;;;5.40;;
59338;SDS011;45117;50.960;5.500;2022-07-23T08:12:37;8.57;;;5.85;;
59338;SDS011;45117;50.960;5.500;2022-07-23T08:15:07;8.82;;;4.50;;
59338;SDS011;45117;50.960;5.500;2022-07-23T08:17:34;8.75;;;5.65;;
59338;SDS011;45117;50.960;5.500;2022-07-23T08:20:01;10.65;;;6.25;;
59338;SDS011;45117;50.960;5.500;2022-07-23T08:22:40;8.80;;;5.75;;
59338;SDS011;45117;50.960;5.500;2022-07-23T08:25:08;8.05;;;5.82;;
59338;SDS011;45117;50.960;5.500;2022-07-23T08:27:34;7.13;;;5.18;;
59338;SDS011;45117;50.960;5.500;2022-07-23T08:30:03;8.90;;;5.70;;
59338;SDS011;45117;50.960;5.500;2022-07-23T08:32:30;10.93;;;5.60;;
59338;SDS011;45117;50.960;5.500;2022-07-23T08:34:56;8.55;;;5.90;;
59338;SDS011;45117;50.960;5.500;2022-07-23T08:37:23;7.90;;;6.03;;
59338;SDS011;45117;50.960;5.500;2022-07-23T08:39:49;11.38;;;6.63;;
59338;SDS011;45117;50.960;5.500;2022-07-23T08:42:16;10.15;;;5.80;;
59338;SDS011;45117;50.960;5.500;2022-07-23T08:44:45;9.55;;;5.57;;
59338;SDS011;45117;50.960;5.500;2022-07-23T08:47:13;8.40;;;5.00;;
59338;SDS011;45117;50.960;5.500;2022-07-23T08:49:41;8.00;;;5.47;;
59338;SDS011;45117;50.960;5.500;2022-07-23T08:52:10;8.80;;;5.55;;
59338;SDS011;45117;50.960;5.500;2022-07-23T08:54:36;9.88;;;6.10;;
59338;SDS011;45117;50.960;5.500;2022-07-23T08:57:03;9.07;;;5.30;;
59338;SDS011;45117;50.960;5.500;2022-07-23T08:59:30;6.82;;;5.70;;
59338;SDS011;45117;50.960;5.500;2022-07-23T09:01:57;7.47;;;4.88;;
59338;SDS011;45117;50.960;5.500;2022-07-23T09:04:26;7.45;;;5.05;;
59338;SDS011;45117;50.960;5.500;2022-07-23T09:06:53;7.40;;;5.60;;
59338;SDS011;45117;50.960;5.500;2022-07-23T09:09:21;9.48;;;5.43;;
59338;SDS011;45117;50.960;5.500;2022-07-23T09:11:47;8.73;;;5.97;;
59338;SDS011;45117;50.960;5.500;2022-07-23T09:14:35;5.30;;;3.80;;
59338;SDS011;45117;50.960;5.500;2022-07-23T09:17:07;8.45;;;5.20;;
59338;SDS011;45117;50.960;5.500;2022-07-23T09:19:39;6.57;;;4.28;;
59338;SDS011;45117;50.960;5.500;2022-07-23T09:22:20;5.40;;;3.95;;
59338;SDS011;45117;50.960;5.500;2022-07-23T09:27:44;7.72;;;4.80;;
59338;SDS011;45117;50.960;5.500;2022-07-23T09:30:12;7.28;;;4.68;;
59338;SDS011;45117;50.960;5.500;2022-07-23T09:32:39;7.22;;;4.68;;
59338;SDS011;45117;50.960;5.500;2022-07-23T09:35:08;8.13;;;4.85;;
59338;SDS011;45117;50.960;5.500;2022-07-23T09:37:34;6.93;;;4.13;;
59338;SDS011;45117;50.960;5.500;2022-07-23T09:40:04;5.80;;;3.92;;
59338;SDS011;45117;50.960;5.500;2022-07-23T09:42:33;6.47;;;3.85;;
59338;SDS011;45117;50.960;5.500;2022-07-23T09:45:00;8.30;;;3.95;;
59338;SDS011;45117;50.960;5.500;2022-07-23T09:47:28;6.30;;;3.00;;
59338;SDS011;45117;50.960;5.500;2022-07-23T09:49:59;6.85;;;4.15;;
59338;SDS011;45117;50.960;5.500;2022-07-23T09:52:31;7.03;;;3.97;;
59338;SDS011;45117;50.960;5.500;2022-07-23T09:55:00;6.68;;;3.67;;
59338;SDS011;45117;50.960;5.500;2022-07-23T09:57:28;5.90;;;3.80;;
59338;SDS011;45117;50.960;5.500;2022-07-23T09:59:56;6.35;;;3.80;;
59338;SDS011;45117;50.960;5.500;2022-07-23T10:02:26;5.57;;;3.67;;
59338;SDS011;45117;50.960;5.500;2022-07-23T10:04:54;5.40;;;3.17;;
59338;SDS011;45117;50.960;5.500;2022-07-23T10:07:21;6.25;;;3.10;;
59338;SDS011;45117;50.960;5.500;2022-07-23T10:09:50;4.68;;;3.20;;
59338;SDS011;45117;50.960;5.500;2022-07-23T10:12:19;6.10;;;3.38;;
59338;SDS011;45117;50.960;5.500;2022-07-23T10:14:59;4.63;;;2.95;;
59338;SDS011;45117;50.960;5.500;2022-07-23T10:17:27;3.03;;;2.00;;
59338;SDS011;45117;50.960;5.500;2022-07-23T10:19:54;3.42;;;2.25;;
59338;SDS011;45117;50.960;5.500;2022-07-23T10:22:22;5.88;;;2.28;;
59338;SDS011;45117;50.960;5.500;2022-07-23T10:25:03;2.85;;;2.00;;
59338;SDS011;45117;50.960;5.500;2022-07-23T10:27:45;2.20;;;1.67;;
59338;SDS011;45117;50.960;5.500;2022-07-23T10:30:19;3.00;;;1.80;;
59338;SDS011;45117;50.960;5.500;2022-07-23T10:32:53;4.57;;;1.70;;
59338;SDS011;45117;50.960;5.500;2022-07-23T10:35:33;2.35;;;1.30;;
59338;SDS011;45117;50.960;5.500;2022-07-23T10:38:07;2.78;;;1.60;;
59338;SDS011;45117;50.960;5.500;2022-07-23T10:40:49;2.83;;;1.48;;
59338;SDS011;45117;50.960;5.500;2022-07-23T10:43:19;2.03;;;1.60;;
59338;SDS011;45117;50.960;5.500;2022-07-23T10:45:46;2.72;;;1.50;;
59338;SDS011;45117;50.960;5.500;2022-07-23T10:48:14;2.95;;;1.70;;
59338;SDS011;45117;50.960;5.500;2022-07-23T10:50:42;5.15;;;1.83;;
59338;SDS011;45117;50.960;5.500;2022-07-23T10:53:11;2.75;;;1.50;;
59338;SDS011;45117;50.960;5.500;2022-07-23T10:55:41;2.33;;;1.10;;
59338;SDS011;45117;50.960;5.500;2022-07-23T10:58:12;2.83;;;1.40;;
59338;SDS011;45117;50.960;5.500;2022-07-23T11:00:44;1.52;;;1.10;;
59338;SDS011;45117;50.960;5.500;2022-07-23T11:06:01;2.95;;;1.70;;
59338;SDS011;45117;50.960;5.500;2022-07-23T11:08:29;2.28;;;1.40;;
59338;SDS011;45117;50.960;5.500;2022-07-23T11:10:56;1.65;;;1.25;;
59338;SDS011;45117;50.960;5.500;2022-07-23T11:13:40;1.52;;;0.95;;
59338;SDS011;45117;50.960;5.500;2022-07-23T11:16:12;1.58;;;1.10;;
59338;SDS011;45117;50.960;5.500;2022-07-23T11:18:57;1.45;;;1.00;;
59338;SDS011;45117;50.960;5.500;2022-07-23T11:21:46;2.00;;;1.10;;
59338;SDS011;45117;50.960;5.500;2022-07-23T11:24:14;2.58;;;1.25;;
59338;SDS011;45117;50.960;5.500;2022-07-23T11:26:57;1.30;;;1.10;;
59338;SDS011;45117;50.960;5.500;2022-07-23T11:29:41;1.10;;;1.00;;
59338;SDS011;45117;50.960;5.500;2022-07-23T11:35:20;1.95;;;1.23;;
59338;SDS011;45117;50.960;5.500;2022-07-23T11:37:52;2.03;;;1.20;;
59338;SDS011;45117;50.960;5.500;2022-07-23T11:40:23;2.08;;;1.40;;
59338;SDS011;45117;50.960;5.500;2022-07-23T11:42:51;2.75;;;1.33;;
59338;SDS011;45117;50.960;5.500;2022-07-23T11:45:21;1.67;;;1.40;;
59338;SDS011;45117;50.960;5.500;2022-07-23T11:47:48;1.77;;;1.20;;
59338;SDS011;45117;50.960;5.500;2022-07-23T11:50:15;2.08;;;1.35;;
59338;SDS011;45117;50.960;5.500;2022-07-23T11:52:42;2.38;;;1.42;;
59338;SDS011;45117;50.960;5.500;2022-07-23T11:55:09;2.95;;;1.27;;
59338;SDS011;45117;50.960;5.500;2022-07-23T11:57:37;2.25;;;1.50;;
59338;SDS011;45117;50.960;5.500;2022-07-23T12:00:05;2.15;;;1.45;;
59338;SDS011;45117;50.960;5.500;2022-07-23T12:02:35;2.17;;;1.80;;
59338;SDS011;45117;50.960;5.500;2022-07-23T12:05:03;1.85;;;1.30;;
59338;SDS011;45117;50.960;5.500;2022-07-23T12:07:31;1.35;;;1.23;;
59338;SDS011;45117;50.960;5.500;2022-07-23T12:10:00;2.08;;;1.33;;
59338;SDS011;45117;50.960;5.500;2022-07-23T12:12:34;1.77;;;1.30;;
59338;SDS011;45117;50.960;5.500;2022-07-23T12:15:04;3.25;;;1.45;;
59338;SDS011;45117;50.960;5.500;2022-07-23T12:17:33;1.95;;;1.42;;
59338;SDS011;45117;50.960;5.500;2022-07-23T12:20:03;3.83;;;1.33;;
59338;SDS011;45117;50.960;5.500;2022-07-23T12:22:35;1.95;;;1.30;;
59338;SDS011;45117;50.960;5.500;2022-07-23T12:25:04;2.60;;;1.35;;
59338;SDS011;45117;50.960;5.500;2022-07-23T12:27:34;1.48;;;1.33;;
59338;SDS011;45117;50.960;5.500;2022-07-23T12:32:53;3.38;;;1.60;;
59338;SDS011;45117;50.960;5.500;2022-07-23T12:35:22;1.50;;;1.30;;
59338;SDS011;45117;50.960;5.500;2022-07-23T12:37:50;1.50;;;1.15;;
59338;SDS011;45117;50.960;5.500;2022-07-23T12:40:24;1.58;;;1.23;;
59338;SDS011;45117;50.960;5.500;2022-07-23T12:42:52;1.55;;;1.30;;
59338;SDS011;45117;50.960;5.500;2022-07-23T12:45:23;2.08;;;0.95;;
59338;SDS011;45117;50.960;5.500;2022-07-23T12:47:54;2.50;;;1.20;;
59338;SDS011;45117;50.960;5.500;2022-07-23T12:50:35;1.42;;;1.30;;
59338;SDS011;45117;50.960;5.500;2022-07-23T12:53:04;2.05;;;1.45;;
59338;SDS011;45117;50.960;5.500;2022-07-23T12:55:32;2.50;;;1.20;;
59338;SDS011;45117;50.960;5.500;2022-07-23T12:58:03;1.70;;;1.23;;
59338;SDS011;45117;50.960;5.500;2022-07-23T13:00:31;1.65;;;1.42;;
59338;SDS011;45117;50.960;5.500;2022-07-23T13:02:57;1.65;;;1.48;;
59338;SDS011;45117;50.960;5.500;2022-07-23T13:05:24;2.22;;;1.48;;
59338;SDS011;45117;50.960;5.500;2022-07-23T13:07:52;1.50;;;1.20;;
59338;SDS011;45117;50.960;5.500;2022-07-23T13:10:18;4.00;;;1.65;;
59338;SDS011;45117;50.960;5.500;2022-07-23T13:12:45;2.42;;;1.15;;
59338;SDS011;45117;50.960;5.500;2022-07-23T13:15:11;2.72;;;1.30;;
59338;SDS011;45117;50.960;5.500;2022-07-23T13:17:38;3.50;;;1.48;;
59338;SDS011;45117;50.960;5.500;2022-07-23T13:20:05;1.73;;;1.63;;
59338;SDS011;45117;50.960;5.500;2022-07-23T13:22:32;2.22;;;1.58;;
59338;SDS011;45117;50.960;5.500;2022-07-23T13:25:00;2.70;;;1.48;;
59338;SDS011;45117;50.960;5.500;2022-07-23T13:27:27;1.45;;;1.10;;
59338;SDS011;45117;50.960;5.500;2022-07-23T13:29:54;2.03;;;1.48;;
59338;SDS011;45117;50.960;5.500;2022-07-23T13:32:20;1.45;;;1.10;;
59338;SDS011;45117;50.960;5.500;2022-07-23T13:34:47;1.48;;;1.33;;
59338;SDS011;45117;50.960;5.500;2022-07-23T13:37:13;1.50;;;1.40;;
59338;SDS011;45117;50.960;5.500;2022-07-23T13:39:40;1.88;;;1.60;;
59338;SDS011;45117;50.960;5.500;2022-07-23T13:42:08;2.10;;;1.50;;
59338;SDS011;45117;50.960;5.500;2022-07-23T13:44:34;1.30;;;1.20;;
59338;SDS011;45117;50.960;5.500;2022-07-23T13:47:01;3.03;;;1.40;;
59338;SDS011;45117;50.960;5.500;2022-07-23T13:49:28;2.03;;;1.33;;
59338;SDS011;45117;50.960;5.500;2022-07-23T13:51:54;2.25;;;1.30;;
59338;SDS011;45117;50.960;5.500;2022-07-23T13:54:22;5.07;;;2.35;;
59338;SDS011;45117;50.960;5.500;2022-07-23T13:56:48;2.22;;;1.60;;
59338;SDS011;45117;50.960;5.500;2022-07-23T13:59:16;1.45;;;1.30;;
59338;SDS011;45117;50.960;5.500;2022-07-23T14:01:43;1.52;;;1.30;;
59338;SDS011;45117;50.960;5.500;2022-07-23T14:04:10;2.05;;;1.58;;
59338;SDS011;45117;50.960;5.500;2022-07-23T14:06:36;2.20;;;1.40;;
59338;SDS011;45117;50.960;5.500;2022-07-23T14:09:03;1.38;;;1.27;;
59338;SDS011;45117;50.960;5.500;2022-07-23T14:11:29;1.73;;;1.27;;
59338;SDS011;45117;50.960;5.500;2022-07-23T14:13:56;2.17;;;1.70;;
59338;SDS011;45117;50.960;5.500;2022-07-23T14:16:27;2.28;;;1.70;;
59338;SDS011;45117;50.960;5.500;2022-07-23T14:18:53;1.63;;;1.20;;
59338;SDS011;45117;50.960;5.500;2022-07-23T14:21:20;2.58;;;1.60;;
59338;SDS011;45117;50.960;5.500;2022-07-23T14:23:46;1.80;;;1.23;;
59338;SDS011;45117;50.960;5.500;2022-07-23T14:26:13;3.17;;;1.70;;
59338;SDS011;45117;50.960;5.500;2022-07-23T14:28:40;2.17;;;1.60;;
59338;SDS011;45117;50.960;5.500;2022-07-23T14:31:06;2.72;;;1.70;;
59338;SDS011;45117;50.960;5.500;2022-07-23T14:33:34;2.20;;;1.70;;
59338;SDS011;45117;50.960;5.500;2022-07-23T14:36:01;3.20;;;1.80;;
59338;SDS011;45117;50.960;5.500;2022-07-23T14:38:28;2.67;;;1.65;;
59338;SDS011;45117;50.960;5.500;2022-07-23T14:40:55;1.88;;;1.73;;
59338;SDS011;45117;50.960;5.500;2022-07-23T14:43:22;4.20;;;1.80;;
59338;SDS011;45117;50.960;5.500;2022-07-23T14:45:48;3.83;;;1.67;;
59338;SDS011;45117;50.960;5.500;2022-07-23T14:48:15;2.22;;;1.90;;
59338;SDS011;45117;50.960;5.500;2022-07-23T14:50:43;3.17;;;1.85;;
59338;SDS011;45117;50.960;5.500;2022-07-23T14:53:10;2.20;;;1.83;;
59338;SDS011;45117;50.960;5.500;2022-07-23T14:55:36;3.38;;;1.80;;